createdAt,value
2022-11-27T00:02:10.143Z,98526.00
2022-11-27T00:05:13.277Z,98518.06
2022-11-27T00:08:16.610Z,98520.75
2022-11-27T00:11:22.964Z,98526.16
2022-11-27T00:14:25.920Z,98527.69
2022-11-27T00:17:28.736Z,98528.84
2022-11-27T00:20:31.663Z,98524.47
2022-11-27T00:23:35.634Z,98512.44
2022-11-27T00:26:39.929Z,98524.75
2022-11-27T00:29:42.813Z,98523.28
2022-11-27T00:32:45.831Z,98519.75
2022-11-27T00:35:48.746Z,98528.91
2022-11-27T00:38:51.780Z,98536.97
2022-11-27T00:41:56.310Z,98529.09
2022-11-27T00:44:59.303Z,98533.09
2022-11-27T00:48:02.257Z,98542.69
2022-11-27T00:51:07.208Z,98541.59
2022-11-27T00:54:10.587Z,98544.56
2022-11-27T00:57:14.906Z,98537.34
2022-11-27T01:00:19.044Z,98551.06
2022-11-27T01:03:22.022Z,98548.81
2022-11-27T01:06:25.548Z,98535.50
2022-11-27T01:09:28.494Z,98531.78
2022-11-27T01:12:32.765Z,98523.84
2022-11-27T01:15:35.665Z,98512.00
2022-11-27T01:18:40.353Z,98509.38
2022-11-27T01:21:43.351Z,98498.66
2022-11-27T01:24:46.296Z,98502.00
2022-11-27T01:27:50.550Z,98492.44
2022-11-27T01:30:53.576Z,98476.81
2022-11-27T01:33:59.653Z,98482.00
2022-11-27T01:37:02.529Z,98478.50
2022-11-27T01:40:06.586Z,98474.41
2022-11-27T01:43:15.965Z,98480.16
2022-11-27T01:46:39.263Z,98481.91
2022-11-27T01:49:45.832Z,98488.75
2022-11-27T01:52:52.945Z,98495.78
2022-11-27T01:55:59.792Z,98506.44
2022-11-27T01:59:04.852Z,98506.31
2022-11-27T02:02:07.873Z,98522.91
2022-11-27T02:05:11.901Z,98529.75
2022-11-27T02:08:17.132Z,98527.91
2022-11-27T02:11:29.088Z,98532.91
2022-11-27T02:14:40.008Z,98541.78
2022-11-27T02:17:48.932Z,98543.38
2022-11-27T02:20:58.877Z,98544.59
2022-11-27T02:24:34.376Z,98533.28
2022-11-27T02:28:06.321Z,98538.47
2022-11-27T02:31:17.189Z,98539.41
2022-11-27T02:34:28.747Z,98533.72
2022-11-27T02:37:35.493Z,98529.84
2022-11-27T02:40:41.185Z,98531.63
2022-11-27T02:43:48.793Z,98538.47
2022-11-27T02:46:54.260Z,98532.81
2022-11-27T02:49:58.879Z,98531.25
2022-11-27T02:53:06.052Z,98524.19
2022-11-27T02:56:13.680Z,98523.63
2022-11-27T02:59:19.437Z,98528.81
2022-11-27T03:02:30.352Z,98531.25
2022-11-27T03:05:36.809Z,98534.56
2022-11-27T03:08:46.793Z,98537.91
2022-11-27T03:11:50.122Z,98540.59
2022-11-27T03:14:53.162Z,98542.34
2022-11-27T03:18:05.792Z,98539.56
2022-11-27T03:21:20.116Z,98537.69
2022-11-27T03:24:23.133Z,98537.34
2022-11-27T03:27:30.940Z,98532.06
2022-11-27T03:30:33.873Z,98535.50
2022-11-27T03:33:38.106Z,98542.06
2022-11-27T03:36:41.135Z,98545.22
2022-11-27T03:39:44.530Z,98552.50
2022-11-27T03:43:00.338Z,98545.94
2022-11-27T03:46:10.735Z,98554.19
2022-11-27T03:49:23.109Z,98553.44
2022-11-27T03:52:36.723Z,98552.78
2022-11-27T03:55:49.547Z,98548.06
2022-11-27T03:58:59.925Z,98550.47
2022-11-27T04:02:02.976Z,98554.63
2022-11-27T04:05:08.201Z,98546.00
2022-11-27T04:08:11.386Z,98541.94
2022-11-27T04:11:14.574Z,98534.25
2022-11-27T04:14:17.506Z,98533.44
2022-11-27T04:17:20.364Z,98532.94
2022-11-27T04:20:24.929Z,98519.91
2022-11-27T04:23:27.866Z,98519.72
2022-11-27T04:26:30.718Z,98530.66
2022-11-27T04:29:33.633Z,98526.41
2022-11-27T04:32:36.676Z,98526.75
2022-11-27T04:35:40.919Z,98533.97
2022-11-27T04:38:43.811Z,98535.72
2022-11-27T04:41:46.672Z,98542.22
2022-11-27T04:44:49.602Z,98530.00
2022-11-27T04:47:52.475Z,98532.47
2022-11-27T04:50:58.551Z,98524.63
2022-11-27T04:54:01.397Z,98518.97
2022-11-27T04:57:04.483Z,98519.16
2022-11-27T05:00:08.770Z,98509.94
2022-11-27T05:03:12.196Z,98515.47
2022-11-27T05:06:16.564Z,98512.47
2022-11-27T05:09:19.937Z,98516.84
2022-11-27T05:12:22.833Z,98531.53
2022-11-27T05:15:25.734Z,98531.34
2022-11-27T05:18:29.005Z,98524.13
2022-11-27T05:21:33.180Z,98513.19
2022-11-27T05:24:36.171Z,98519.16
2022-11-27T05:27:39.004Z,98518.78
2022-11-27T05:30:42.200Z,98521.44
2022-11-27T05:33:45.104Z,98515.53
2022-11-27T05:36:49.383Z,98516.56
2022-11-27T05:39:52.265Z,98512.06
2022-11-27T05:42:55.114Z,98509.47
2022-11-27T05:45:57.998Z,98508.38
2022-11-27T05:49:00.928Z,98505.50
2022-11-27T05:52:05.456Z,98508.03
2022-11-27T05:55:09.135Z,98508.03
2022-11-27T05:58:12.021Z,98510.59
2022-11-27T06:01:16.407Z,98513.78
2022-11-27T06:04:19.969Z,98525.22
2022-11-27T06:07:24.268Z,98509.22
2022-11-27T06:10:27.172Z,98500.78
2022-11-27T06:13:30.122Z,98495.22
2022-11-27T06:16:33.007Z,98482.75
2022-11-27T06:19:35.874Z,98482.47
2022-11-27T06:22:40.145Z,98493.88
2022-11-27T06:25:43.086Z,98495.06
2022-11-27T06:28:46.878Z,98502.03
2022-11-27T06:31:49.809Z,98505.53
2022-11-27T06:34:52.758Z,98507.38
2022-11-27T06:37:56.997Z,98504.94
2022-11-27T06:41:03.468Z,98498.22
2022-11-27T06:44:06.875Z,98503.50
2022-11-27T06:47:09.820Z,98500.75
2022-11-27T06:50:12.939Z,98501.31
2022-11-27T06:53:17.294Z,98502.41
2022-11-27T06:56:22.276Z,98496.59
2022-11-27T06:59:25.228Z,98499.09
2022-11-27T07:02:28.174Z,98500.16
2022-11-27T07:05:31.169Z,98498.25
2022-11-27T07:08:36.619Z,98493.72
2022-11-27T07:11:40.352Z,98489.06
2022-11-27T07:14:43.328Z,98481.56
2022-11-27T07:17:46.218Z,98478.00
2022-11-27T07:20:56.272Z,98479.19
2022-11-27T07:24:01.899Z,98476.81
2022-11-27T07:27:04.812Z,98468.69
2022-11-27T07:30:08.986Z,98472.69
2022-11-27T07:33:11.843Z,98474.63
2022-11-27T07:36:17.551Z,98464.59
2022-11-27T07:39:39.433Z,98467.72
2022-11-27T07:42:44.763Z,98465.34
2022-11-27T07:45:47.805Z,98469.31
2022-11-27T07:48:51.072Z,98462.13
2022-11-27T07:51:53.913Z,98461.09
2022-11-27T07:54:58.150Z,98450.56
2022-11-27T07:58:01.151Z,98447.84
2022-11-27T08:01:08.468Z,98454.44
2022-11-27T08:04:11.405Z,98456.66
2022-11-27T08:07:14.435Z,98462.56
2022-11-27T08:10:19.083Z,98461.88
2022-11-27T08:13:21.946Z,98464.66
2022-11-27T08:16:25.188Z,98461.06
2022-11-27T08:19:28.418Z,98455.88
2022-11-27T08:22:31.319Z,98451.34
2022-11-27T08:25:35.870Z,98451.66
2022-11-27T08:28:39.753Z,98441.00
2022-11-27T08:31:42.618Z,98448.94
2022-11-27T08:34:45.566Z,98444.66
2022-11-27T08:37:48.385Z,98446.94
2022-11-27T08:41:00.596Z,98445.81
2022-11-27T08:44:07.961Z,98452.00
2022-11-27T08:47:12.118Z,98454.38
2022-11-27T08:50:14.956Z,98456.38
2022-11-27T08:53:18.811Z,98450.47
2022-11-27T08:56:25.407Z,98443.09
2022-11-27T08:59:28.395Z,98437.13
2022-11-27T09:02:31.569Z,98435.97
2022-11-27T09:05:34.942Z,98428.59
2022-11-27T09:08:38.371Z,98415.31
2022-11-27T09:11:42.940Z,98416.44
2022-11-27T09:14:45.787Z,98403.03
2022-11-27T09:17:50.946Z,98390.13
2022-11-27T09:20:58.053Z,98393.13
2022-11-27T09:24:03.406Z,98396.44
2022-11-27T09:27:07.612Z,98390.78
2022-11-27T09:30:11.565Z,98380.59
2022-11-27T09:33:14.431Z,98380.81
2022-11-27T09:36:19.575Z,98377.78
2022-11-27T09:39:22.850Z,98373.47
2022-11-27T09:42:39.543Z,98354.69
2022-11-27T09:45:47.611Z,98334.38
2022-11-27T09:48:52.671Z,98331.38
2022-11-27T09:52:03.300Z,98327.84
2022-11-27T09:55:14.383Z,98310.94
2022-11-27T09:58:23.250Z,98299.00
2022-11-27T10:01:36.488Z,98288.78
2022-11-27T10:05:05.893Z,98264.88
2022-11-27T10:08:24.433Z,98247.81
2022-11-27T10:11:32.264Z,98234.84
2022-11-27T10:14:46.185Z,98213.88
2022-11-27T10:17:57.478Z,98199.97
2022-11-27T10:21:09.080Z,98179.94
2022-11-27T10:24:22.629Z,98166.94
2022-11-27T10:27:32.656Z,98154.25
2022-11-27T10:30:40.677Z,98155.63
2022-11-27T10:33:45.972Z,98147.19
2022-11-27T10:36:51.690Z,98154.25
2022-11-27T10:39:58.827Z,98149.41
2022-11-27T10:43:10.990Z,98163.22
2022-11-27T10:46:18.774Z,98167.59
2022-11-27T10:49:21.730Z,98175.69
2022-11-27T10:52:24.967Z,98169.47
2022-11-27T10:55:43.123Z,98170.16
2022-11-27T10:58:52.753Z,98166.19
2022-11-27T11:01:58.591Z,98168.13
2022-11-27T11:05:35.095Z,98175.13
2022-11-27T11:08:38.135Z,98181.28
2022-11-27T11:11:41.215Z,98189.41
2022-11-27T11:14:52.102Z,98194.94
2022-11-27T11:17:56.362Z,98217.66
2022-11-27T11:21:01.812Z,98205.56
2022-11-27T11:24:07.885Z,98209.03
2022-11-27T11:27:16.025Z,98207.38
2022-11-27T11:30:24.180Z,98199.97
2022-11-27T11:33:29.521Z,98197.34
2022-11-27T11:36:33.161Z,98202.84
2022-11-27T11:39:49.158Z,98200.38
2022-11-27T11:42:54.199Z,98203.00
2022-11-27T11:46:07.230Z,98205.59
2022-11-27T11:49:23.018Z,98212.38
2022-11-27T11:52:41.614Z,98231.06
2022-11-27T11:56:01.596Z,98217.59
2022-11-27T11:59:11.871Z,98222.00
2022-11-27T12:02:35.716Z,98224.78
2022-11-27T12:05:48.976Z,98209.38
2022-11-27T12:09:04.194Z,98205.91
2022-11-27T12:12:20.638Z,98212.41
2022-11-27T12:15:30.856Z,98223.00
2022-11-27T12:18:46.688Z,98223.66
2022-11-27T12:21:59.622Z,98225.72
2022-11-27T12:25:12.228Z,98223.22
2022-11-27T12:28:29.677Z,98218.16
